createdAt,value
2019-01-19T00:00:41.252Z,14.63
2019-01-19T00:04:25.777Z,14.57
2019-01-19T00:07:43.045Z,15.63
2019-01-19T00:11:20.296Z,16.30
2019-01-19T00:14:16.836Z,15.70
2019-01-19T00:17:41.385Z,16.83
2019-01-19T00:21:20.182Z,17.50
2019-01-19T00:24:43.307Z,15.67
2019-01-19T00:28:21.347Z,16.13
2019-01-19T00:31:06.404Z,15.97
2019-01-19T00:34:33.839Z,16.60
2019-01-19T00:37:29.723Z,16.73
2019-01-19T00:40:51.856Z,17.53
2019-01-19T00:44:18.012Z,17.67
2019-01-19T00:47:49.698Z,17.73
2019-01-19T00:50:59.121Z,18.37
2019-01-19T00:53:40.871Z,18.07
2019-01-19T00:56:38.128Z,17.87
2019-01-19T00:59:25.107Z,19.17
2019-01-19T01:02:40.332Z,19.57
2019-01-19T01:06:08.256Z,18.23
2019-01-19T01:09:45.190Z,20.80
2019-01-19T01:12:41.778Z,19.10
2019-01-19T01:16:01.207Z,19.87
2019-01-19T01:19:31.572Z,18.77
2019-01-19T01:22:42.716Z,19.13
2019-01-19T01:26:02.036Z,20.13
2019-01-19T01:29:22.271Z,19.50
2019-01-19T01:32:34.967Z,18.73
2019-01-19T01:36:12.294Z,19.73
2019-01-19T01:39:30.032Z,19.30
2019-01-19T01:42:52.847Z,19.63
2019-01-19T01:46:18.911Z,19.53
2019-01-19T01:49:25.638Z,19.57
2019-01-19T01:52:41.026Z,19.10
2019-01-19T01:55:20.072Z,18.87
2019-01-19T01:58:13.677Z,17.87
2019-01-19T02:02:00.732Z,18.67
2019-01-19T02:05:24.409Z,18.03
2019-01-19T02:09:10.182Z,18.40
2019-01-19T02:12:21.251Z,19.50
2019-01-19T02:16:00.701Z,19.10
2019-01-19T02:19:19.752Z,20.37
2019-01-19T02:22:16.391Z,18.60
2019-01-19T02:25:46.196Z,18.77
2019-01-19T02:29:17.405Z,18.87
2019-01-19T02:32:20.585Z,19.97
2019-01-19T02:35:32.748Z,20.77
2019-01-19T02:38:35.688Z,19.17
2019-01-19T02:42:05.555Z,20.90
2019-01-19T02:46:01.978Z,19.33
2019-01-19T02:49:36.889Z,19.83
2019-01-19T02:53:05.667Z,19.80
2019-01-19T02:56:06.124Z,18.27
2019-01-19T02:59:26.454Z,19.83
2019-01-19T03:02:55.524Z,18.93
2019-01-19T03:05:57.506Z,19.53
2019-01-19T03:08:46.074Z,17.97
2019-01-19T03:12:26.883Z,18.77
2019-01-19T03:16:02.664Z,18.10
2019-01-19T03:19:16.257Z,17.87
2019-01-19T03:22:15.846Z,18.33
2019-01-19T03:25:16.753Z,17.80
2019-01-19T03:28:51.340Z,17.67
2019-01-19T03:32:12.665Z,17.93
2019-01-19T03:35:32.907Z,17.37
2019-01-19T03:39:14.119Z,16.47
2019-01-19T03:42:35.086Z,16.30
2019-01-19T03:45:38.274Z,15.57
2019-01-19T03:49:31.173Z,17.23
2019-01-19T03:53:00.784Z,18.33
2019-01-19T03:56:16.306Z,17.03
2019-01-19T03:59:16.682Z,17.07
2019-01-19T04:02:21.043Z,17.10
2019-01-19T04:06:12.633Z,18.37
2019-01-19T04:09:20.956Z,17.90
2019-01-19T04:13:05.164Z,17.53
2019-01-19T04:16:37.379Z,18.77
2019-01-19T04:20:01.503Z,18.23
2019-01-19T04:22:45.923Z,18.43
2019-01-19T04:25:56.344Z,18.00
2019-01-19T04:28:26.168Z,17.60
2019-01-19T04:30:54.344Z,18.43
2019-01-19T04:33:22.623Z,18.70
2019-01-19T04:35:51.151Z,17.97
2019-01-19T04:38:19.547Z,18.83
2019-01-19T04:40:47.834Z,18.97
2019-01-19T04:43:16.083Z,19.63
2019-01-19T04:45:44.156Z,18.70
2019-01-19T04:48:12.281Z,18.67
2019-01-19T04:50:40.549Z,18.67
2019-01-19T04:53:08.639Z,19.30
2019-01-19T04:55:37.189Z,18.53
2019-01-19T04:58:05.325Z,19.90
2019-01-19T05:00:33.377Z,19.37
2019-01-19T05:03:01.483Z,20.47
2019-01-19T05:05:29.554Z,19.93
2019-01-19T05:07:57.612Z,20.43
2019-01-19T05:10:25.920Z,20.70
2019-01-19T05:12:53.904Z,20.43
2019-01-19T05:15:22.643Z,20.30
2019-01-19T05:17:50.849Z,21.60
2019-01-19T05:20:18.996Z,21.40
2019-01-19T05:22:47.129Z,21.23
2019-01-19T05:25:15.184Z,21.83
2019-01-19T05:27:43.423Z,21.90
2019-01-19T05:30:16.262Z,21.67
2019-01-19T05:32:44.461Z,22.43
2019-01-19T05:35:12.574Z,23.23
2019-01-19T05:37:40.799Z,23.57
2019-01-19T05:40:10.210Z,23.90
2019-01-19T05:42:38.590Z,24.40
2019-01-19T05:45:09.481Z,24.23
2019-01-19T05:47:37.559Z,25.63
2019-01-19T05:50:13.469Z,25.70
2019-01-19T05:52:41.516Z,27.50
2019-01-19T05:55:09.672Z,25.53
2019-01-19T05:57:37.867Z,27.60
2019-01-19T06:00:14.741Z,26.63
2019-01-19T06:02:42.807Z,29.07
2019-01-19T06:05:11.241Z,27.97
2019-01-19T06:07:39.442Z,27.70
2019-01-19T06:10:11.632Z,27.70
2019-01-19T06:12:39.704Z,28.70
2019-01-19T06:15:10.548Z,29.20
2019-01-19T06:17:38.660Z,28.93
2019-01-19T06:20:08.688Z,28.10
2019-01-19T06:22:36.840Z,29.73
2019-01-19T06:25:06.509Z,31.53
2019-01-19T06:27:34.587Z,31.17
2019-01-19T06:30:04.005Z,30.27
2019-01-19T06:32:32.284Z,30.83
2019-01-19T06:35:00.454Z,32.13
2019-01-19T06:37:28.552Z,31.33
2019-01-19T06:39:56.703Z,30.43
2019-01-19T06:42:24.778Z,31.27
2019-01-19T06:44:52.882Z,31.13
2019-01-19T06:47:20.986Z,32.77
2019-01-19T06:49:49.029Z,31.70
2019-01-19T06:52:17.099Z,32.43
2019-01-19T06:54:45.185Z,32.07
2019-01-19T06:57:13.294Z,31.77
2019-01-19T06:59:41.306Z,32.50
2019-01-19T07:02:09.503Z,34.37
2019-01-19T07:04:37.670Z,32.23
2019-01-19T07:07:05.833Z,32.93
2019-01-19T07:09:34.103Z,32.63
2019-01-19T07:12:02.624Z,34.17
2019-01-19T07:14:30.734Z,32.40
2019-01-19T07:16:58.842Z,33.80
2019-01-19T07:19:27.183Z,34.03
2019-01-19T07:21:55.313Z,33.17
2019-01-19T07:24:23.362Z,32.30
2019-01-19T07:26:51.464Z,32.93
2019-01-19T07:29:19.523Z,32.57
2019-01-19T07:31:47.676Z,33.77
2019-01-19T07:34:15.703Z,33.27
2019-01-19T07:36:43.819Z,32.97
2019-01-19T07:39:11.891Z,34.27
2019-01-19T07:41:39.964Z,31.93
2019-01-19T07:44:08.139Z,33.90
2019-01-19T07:46:36.812Z,34.70
2019-01-19T07:49:05.142Z,33.20
2019-01-19T07:51:33.232Z,34.87
2019-01-19T07:54:01.560Z,34.63
2019-01-19T07:56:29.701Z,33.20
2019-01-19T07:58:57.733Z,34.47
2019-01-19T08:01:26.280Z,33.63
2019-01-19T08:03:54.392Z,33.47
2019-01-19T08:06:22.429Z,32.93
2019-01-19T08:08:50.606Z,34.67
2019-01-19T08:11:18.724Z,33.80
2019-01-19T08:13:46.740Z,32.27
2019-01-19T08:16:14.982Z,34.53
2019-01-19T08:18:43.244Z,32.00
2019-01-19T08:21:11.434Z,34.00
2019-01-19T08:23:39.540Z,33.10
2019-01-19T08:26:07.908Z,33.33
2019-01-19T08:28:36.059Z,34.13
2019-01-19T08:31:04.135Z,32.27
2019-01-19T08:33:32.206Z,32.37
2019-01-19T08:36:00.604Z,32.80
2019-01-19T08:38:28.701Z,33.57
2019-01-19T08:40:56.796Z,32.53
2019-01-19T08:43:40.162Z,32.17
2019-01-19T08:46:08.533Z,32.70
2019-01-19T08:48:36.947Z,32.23
2019-01-19T08:51:05.122Z,31.37
2019-01-19T08:53:33.415Z,33.37
2019-01-19T08:56:01.710Z,33.30
2019-01-19T08:58:31.252Z,32.13
2019-01-19T09:00:59.512Z,32.77
2019-01-19T09:03:27.971Z,32.67
2019-01-19T09:05:56.677Z,32.33
2019-01-19T09:08:24.854Z,32.40
2019-01-19T09:10:53.023Z,32.17
2019-01-19T09:13:21.144Z,33.47
2019-01-19T09:15:51.812Z,33.47
2019-01-19T09:18:20.062Z,34.27
2019-01-19T09:20:48.183Z,34.37
2019-01-19T09:23:23.756Z,34.53
2019-01-19T09:25:52.156Z,32.50
2019-01-19T09:28:20.336Z,31.90
2019-01-19T09:30:48.712Z,31.90
2019-01-19T09:33:17.043Z,30.27
2019-01-19T09:35:45.355Z,29.83
2019-01-19T09:38:13.904Z,28.40
2019-01-19T09:40:42.127Z,27.67
2019-01-19T09:43:10.540Z,29.17
2019-01-19T09:45:39.040Z,29.33
2019-01-19T09:48:07.365Z,29.23
2019-01-19T09:50:35.678Z,28.43
2019-01-19T09:53:03.972Z,28.77
2019-01-19T09:55:32.396Z,28.83
2019-01-19T09:58:00.780Z,30.90
2019-01-19T10:00:35.641Z,29.67
2019-01-19T10:03:00.506Z,30.43
2019-01-19T10:05:29.291Z,30.40
2019-01-19T10:07:57.500Z,30.83
2019-01-19T10:10:25.616Z,30.87
2019-01-19T10:12:54.787Z,30.20
2019-01-19T10:15:24.461Z,29.30
2019-01-19T10:17:53.611Z,30.53
2019-01-19T10:20:24.085Z,28.63
2019-01-19T10:22:53.696Z,28.90
2019-01-19T10:25:22.031Z,27.57
2019-01-19T10:27:50.286Z,25.40
2019-01-19T10:30:21.898Z,27.63
2019-01-19T10:32:51.272Z,27.93
2019-01-19T10:35:19.480Z,25.53
2019-01-19T10:37:47.909Z,26.53
2019-01-19T10:40:16.482Z,25.33
2019-01-19T10:42:44.996Z,24.83
2019-01-19T10:45:17.880Z,25.90
2019-01-19T10:47:46.130Z,24.50
2019-01-19T10:50:16.266Z,23.53
2019-01-19T10:52:45.184Z,23.00
2019-01-19T10:55:16.088Z,22.30
2019-01-19T10:57:44.252Z,21.10
2019-01-19T11:00:21.408Z,19.93
2019-01-19T11:02:49.713Z,20.97
2019-01-19T11:05:18.097Z,21.03
2019-01-19T11:07:47.856Z,19.27
2019-01-19T11:10:21.928Z,20.33
2019-01-19T11:12:50.409Z,20.77
2019-01-19T11:15:19.239Z,19.80
2019-01-19T11:17:47.424Z,19.33
2019-01-19T11:20:19.627Z,19.40
2019-01-19T11:22:47.970Z,18.63
2019-01-19T11:25:16.615Z,18.37
2019-01-19T11:27:45.221Z,18.40
2019-01-19T11:30:21.912Z,18.67
2019-01-19T11:32:50.057Z,19.47
2019-01-19T11:35:18.465Z,18.53
2019-01-19T11:37:46.572Z,17.63
2019-01-19T11:40:21.008Z,19.00
2019-01-19T11:42:49.436Z,18.43
2019-01-19T11:45:20.145Z,18.77
2019-01-19T11:47:48.665Z,19.90
2019-01-19T11:50:17.235Z,18.00
2019-01-19T11:52:46.266Z,18.53
2019-01-19T11:55:19.931Z,18.13
2019-01-19T11:57:54.596Z,16.63
2019-01-19T12:00:25.852Z,17.73
2019-01-19T12:02:54.501Z,18.83
2019-01-19T12:05:22.968Z,18.27
2019-01-19T12:07:51.043Z,18.73
2019-01-19T12:10:28.287Z,19.20
2019-01-19T12:12:57.541Z,17.37
2019-01-19T12:15:26.677Z,15.33
2019-01-19T12:17:55.261Z,15.77
2019-01-19T12:20:48.546Z,14.53
2019-01-19T12:23:16.990Z,14.33
2019-01-19T12:25:46.318Z,15.23
2019-01-19T12:28:15.097Z,14.63
2019-01-19T12:30:43.480Z,14.67
2019-01-19T12:33:11.806Z,13.90
2019-01-19T12:35:40.087Z,13.97
2019-01-19T12:38:08.486Z,13.63
2019-01-19T12:40:36.654Z,13.10
2019-01-19T12:43:12.596Z,13.43
2019-01-19T12:45:45.120Z,13.27
2019-01-19T12:48:13.368Z,13.00
2019-01-19T12:50:42.032Z,11.03
2019-01-19T12:53:11.239Z,12.47
2019-01-19T12:55:41.026Z,12.40
2019-01-19T12:58:11.741Z,12.53
2019-01-19T13:00:41.180Z,12.87
2019-01-19T13:03:10.750Z,13.20
2019-01-19T13:05:55.836Z,13.10
2019-01-19T13:08:24.893Z,12.07
2019-01-19T13:11:13.951Z,14.43
2019-01-19T13:13:48.442Z,13.03
2019-01-19T13:17:33.963Z,13.60
2019-01-19T13:21:19.298Z,13.50
2019-01-19T13:24:35.057Z,14.30
2019-01-19T13:27:36.188Z,13.13
2019-01-19T13:31:09.321Z,14.03
2019-01-19T13:34:18.142Z,14.20
2019-01-19T13:38:04.238Z,13.27
2019-01-19T13:41:51.854Z,13.53
2019-01-19T13:45:19.156Z,13.83
2019-01-19T13:48:46.327Z,13.57
2019-01-19T13:51:51.628Z,13.97
2019-01-19T13:55:14.848Z,15.30
2019-01-19T13:57:57.098Z,15.37
2019-01-19T14:01:11.698Z,15.77
2019-01-19T14:04:24.118Z,15.23
2019-01-19T14:07:56.602Z,15.00
2019-01-19T14:11:52.894Z,15.30
2019-01-19T14:15:09.298Z,15.17
2019-01-19T14:18:32.845Z,14.30
2019-01-19T14:22:09.213Z,15.10
2019-01-19T14:25:15.124Z,14.57
2019-01-19T14:28:53.362Z,16.10
2019-01-19T14:32:28.767Z,17.10
2019-01-19T14:36:04.589Z,16.70
2019-01-19T14:39:34.288Z,17.67
2019-01-19T14:42:52.606Z,18.33
2019-01-19T14:46:15.040Z,17.80
2019-01-19T14:49:18.641Z,17.00
2019-01-19T14:52:27.710Z,17.13
2019-01-19T14:55:19.093Z,17.20
2019-01-19T14:58:23.034Z,18.50
2019-01-19T15:01:47.290Z,17.33
2019-01-19T15:05:15.740Z,17.20
2019-01-19T15:08:52.548Z,16.90
2019-01-19T15:12:20.515Z,18.85
2019-01-19T15:15:48.348Z,16.50
2019-01-19T15:19:46.913Z,17.80
2019-01-19T15:23:18.966Z,17.93
2019-01-19T15:26:57.147Z,17.83
2019-01-19T15:30:42.474Z,16.93
2019-01-19T15:33:58.451Z,19.20
2019-01-19T15:37:30.341Z,21.10
2019-01-19T15:41:04.541Z,20.77
2019-01-19T15:44:24.483Z,21.63
2019-01-19T15:47:35.567Z,21.47
2019-01-19T15:51:07.665Z,22.60
2019-01-19T15:54:33.567Z,24.53
2019-01-19T15:57:31.573Z,22.57
2019-01-19T16:00:45.899Z,22.40
2019-01-19T16:04:10.841Z,23.80
2019-01-19T16:07:58.143Z,23.07
2019-01-19T16:11:40.398Z,24.20
2019-01-19T16:15:22.249Z,22.67
2019-01-19T16:18:33.358Z,23.20
2019-01-19T16:22:12.214Z,23.20
2019-01-19T16:25:33.504Z,23.87
2019-01-19T16:28:51.236Z,23.50
2019-01-19T16:32:07.754Z,22.77
2019-01-19T16:35:53.516Z,23.77
2019-01-19T16:39:14.244Z,23.27
2019-01-19T16:43:07.920Z,23.60
2019-01-19T16:46:49.145Z,23.27
2019-01-19T16:50:10.705Z,24.23
2019-01-19T16:53:08.759Z,23.50
2019-01-19T16:56:18.728Z,23.97
2019-01-19T16:59:41.106Z,23.10
2019-01-19T17:02:57.065Z,24.37
2019-01-19T17:06:28.784Z,23.37
2019-01-19T17:09:41.010Z,24.57
2019-01-19T17:12:59.292Z,24.13
2019-01-19T17:16:17.309Z,25.33
2019-01-19T17:20:06.941Z,25.67
2019-01-19T17:23:41.696Z,24.70
2019-01-19T17:26:32.482Z,25.90
2019-01-19T17:30:00.399Z,25.47
2019-01-19T17:33:22.175Z,26.23
2019-01-19T17:36:54.576Z,26.83
2019-01-19T17:40:32.152Z,28.50
2019-01-19T17:43:49.575Z,27.20
2019-01-19T17:47:04.366Z,25.30
2019-01-19T17:50:39.820Z,28.03
2019-01-19T17:53:29.715Z,26.33
2019-01-19T17:56:37.154Z,25.43
2019-01-19T18:00:30.767Z,24.47
2019-01-19T18:03:42.053Z,24.67
2019-01-19T18:07:02.791Z,24.57
2019-01-19T18:10:51.784Z,24.80
2019-01-19T18:13:38.396Z,23.90
2019-01-19T18:17:20.612Z,24.47
2019-01-19T18:20:31.815Z,24.77
2019-01-19T18:24:05.812Z,25.20
2019-01-19T18:27:10.496Z,26.03
2019-01-19T18:30:36.332Z,25.50
2019-01-19T18:34:14.376Z,26.83
2019-01-19T18:37:37.060Z,26.47
2019-01-19T18:40:27.158Z,26.67
2019-01-19T18:43:21.837Z,26.43
2019-01-19T18:46:17.438Z,24.87
2019-01-19T18:49:42.548Z,24.73
2019-01-19T18:52:57.248Z,24.83
2019-01-19T18:56:16.109Z,25.77
2019-01-19T18:59:24.066Z,25.23
2019-01-19T19:02:42.590Z,24.47
2019-01-19T19:05:59.840Z,25.90
2019-01-19T19:09:15.069Z,25.30
2019-01-19T19:12:25.430Z,26.43
2019-01-19T19:15:46.504Z,25.90
2019-01-19T19:18:51.434Z,27.17
2019-01-19T19:22:17.380Z,26.77
2019-01-19T19:25:37.299Z,26.53
2019-01-19T19:29:00.706Z,25.03
2019-01-19T19:32:28.621Z,24.87
2019-01-19T19:35:44.603Z,24.43
2019-01-19T19:39:12.384Z,26.07
2019-01-19T19:42:45.980Z,27.27
2019-01-19T19:46:26.365Z,27.53
2019-01-19T19:49:42.429Z,26.47
2019-01-19T19:52:11.528Z,26.73
2019-01-19T19:54:49.819Z,28.00
2019-01-19T19:57:19.329Z,29.30
2019-01-19T19:59:47.569Z,27.60
2019-01-19T20:02:15.883Z,28.50
2019-01-19T20:04:44.010Z,28.80
2019-01-19T20:07:12.571Z,28.43
2019-01-19T20:09:43.714Z,29.47
2019-01-19T20:12:12.064Z,29.20
2019-01-19T20:14:40.198Z,29.70
2019-01-19T20:17:08.933Z,31.77
2019-01-19T20:19:37.071Z,30.60
2019-01-19T20:22:05.473Z,29.23
2019-01-19T20:24:34.739Z,29.80
2019-01-19T20:27:03.101Z,31.70
2019-01-19T20:29:31.275Z,32.30
2019-01-19T20:31:59.446Z,31.20
2019-01-19T20:34:27.623Z,30.17
2019-01-19T20:36:55.760Z,32.03
2019-01-19T20:39:23.962Z,30.53
2019-01-19T20:41:52.013Z,31.70
2019-01-19T20:44:20.267Z,30.70
2019-01-19T20:46:48.414Z,32.70
2019-01-19T20:49:16.483Z,32.77
2019-01-19T20:51:44.584Z,32.47
2019-01-19T20:54:12.764Z,32.90
2019-01-19T20:56:41.037Z,32.73
2019-01-19T20:59:09.254Z,31.77
2019-01-19T21:01:37.344Z,32.47
2019-01-19T21:04:05.675Z,32.80
2019-01-19T21:06:33.938Z,33.30
2019-01-19T21:09:05.953Z,32.83
2019-01-19T21:11:34.180Z,31.03
2019-01-19T21:14:02.393Z,31.30
2019-01-19T21:16:30.604Z,31.97
2019-01-19T21:18:58.783Z,31.60
2019-01-19T21:21:26.983Z,32.63
2019-01-19T21:23:58.532Z,34.17
2019-01-19T21:26:28.177Z,32.93
2019-01-19T21:28:56.372Z,33.07
2019-01-19T21:31:24.488Z,34.53
2019-01-19T21:33:52.769Z,34.87
2019-01-19T21:36:20.980Z,33.63
2019-01-19T21:38:49.228Z,33.40
2019-01-19T21:41:17.479Z,32.63
2019-01-19T21:43:45.832Z,30.83
2019-01-19T21:46:14.576Z,31.67
2019-01-19T21:48:45.136Z,31.33
2019-01-19T21:51:13.411Z,31.40
2019-01-19T21:53:42.087Z,30.37
2019-01-19T21:56:11.021Z,29.83
2019-01-19T21:58:40.559Z,34.03
2019-01-19T22:01:08.723Z,29.53
2019-01-19T22:03:37.542Z,30.63
2019-01-19T22:06:06.213Z,30.00
2019-01-19T22:08:35.857Z,30.17
2019-01-19T22:11:04.938Z,30.63
2019-01-19T22:13:33.283Z,30.90
2019-01-19T22:16:01.391Z,30.53
2019-01-19T22:18:30.703Z,31.77
2019-01-19T22:20:59.315Z,31.30
2019-01-19T22:23:28.653Z,32.10
2019-01-19T22:25:57.000Z,31.93
2019-01-19T22:28:27.523Z,31.93
2019-01-19T22:30:56.005Z,31.77
2019-01-19T22:33:24.947Z,35.37
2019-01-19T22:35:53.379Z,32.20
2019-01-19T22:38:21.905Z,31.70
2019-01-19T22:40:53.732Z,31.27
2019-01-19T22:43:30.991Z,32.20
2019-01-19T22:46:02.247Z,32.20
2019-01-19T22:48:30.713Z,32.20
2019-01-19T22:50:59.454Z,32.57
2019-01-19T22:53:28.205Z,33.77
2019-01-19T22:55:56.530Z,31.83
2019-01-19T22:58:25.176Z,31.93
2019-01-19T23:01:09.649Z,31.53
2019-01-19T23:03:39.848Z,31.90
2019-01-19T23:06:08.204Z,31.80
2019-01-19T23:08:38.406Z,32.07
2019-01-19T23:11:07.112Z,29.90
2019-01-19T23:13:35.195Z,31.63
2019-01-19T23:16:04.222Z,31.30
2019-01-19T23:18:32.936Z,31.67
2019-01-19T23:21:01.379Z,31.90
2019-01-19T23:23:29.685Z,32.33
2019-01-19T23:25:59.975Z,31.80
2019-01-19T23:28:28.951Z,31.73
2019-01-19T23:30:57.049Z,31.77
2019-01-19T23:33:25.180Z,32.43
2019-01-19T23:35:53.476Z,33.23
2019-01-19T23:38:22.267Z,32.80
2019-01-19T23:40:50.490Z,33.90
2019-01-19T23:43:18.556Z,32.50
2019-01-19T23:45:47.077Z,32.77
2019-01-19T23:48:15.624Z,33.17
2019-01-19T23:50:43.830Z,32.70
2019-01-19T23:53:12.142Z,33.27
2019-01-19T23:55:40.369Z,31.70
2019-01-19T23:58:08.712Z,33.23
